Time;durP1;ratioP1;P1;durP2;ratioP2;P2;SDS_P1;SDS_P2;PMS_P1;PMS_P2;Temp;Humidity;BMP_temperature;BMP_pressure;BME280_temperature;BME280_humidity;BME280_pressure;Samples;Min_cycle;Max_cycle;Signal;HPM_P1;HPM_P2
2021/01/27 00:00:32;;;;;;;3.88;3.58;;;3.80;99.90;;;;;;5073562;28;20942;-76
2021/01/27 00:03:00;;;;;;;4.70;3.60;;;3.90;99.90;;;;;;5074789;28;20200;-75
2021/01/27 00:05:29;;;;;;;3.53;3.15;;;3.90;99.90;;;;;;5072943;28;20251;-76
2021/01/27 00:07:55;;;;;;;5.97;3.53;;;3.90;99.90;;;;;;5073120;28;20192;-76
2021/01/27 00:10:22;;;;;;;3.45;3.03;;;3.90;99.90;;;;;;5073267;28;20210;-77
2021/01/27 00:12:48;;;;;;;4.68;3.65;;;3.90;99.90;;;;;;5076735;28;20199;-77
2021/01/27 00:15:18;;;;;;;3.45;3.15;;;3.90;99.90;;;;;;5071817;28;20271;-76
2021/01/27 00:17:44;;;;;;;4.50;3.78;;;3.90;99.90;;;;;;5073504;28;20215;-78
2021/01/27 00:20:12;;;;;;;3.25;2.90;;;3.90;99.90;;;;;;5076593;28;20694;-77
2021/01/27 00:22:38;;;;;;;4.05;3.55;;;3.90;99.90;;;;;;5074792;28;20660;-76
2021/01/27 00:25:07;;;;;;;5.72;3.38;;;3.90;99.90;;;;;;5077855;28;20245;-76
2021/01/27 00:27:33;;;;;;;3.65;2.90;;;3.90;99.90;;;;;;5077194;28;20203;-76
2021/01/27 00:30:00;;;;;;;3.08;2.85;;;3.90;99.90;;;;;;5080013;28;20626;-76
2021/01/27 00:32:28;;;;;;;3.60;3.30;;;3.90;99.90;;;;;;5073865;28;20196;-76
2021/01/27 00:34:54;;;;;;;3.72;2.83;;;3.90;99.90;;;;;;5075978;28;20337;-77
2021/01/27 00:37:21;;;;;;;6.60;3.45;;;3.90;99.90;;;;;;5082549;28;20196;-77
2021/01/27 00:39:48;;;;;;;4.07;3.65;;;3.90;99.90;;;;;;5081467;28;20682;-76
2021/01/27 00:42:14;;;;;;;2.60;2.40;;;3.90;99.90;;;;;;5081049;28;20325;-77
2021/01/27 00:44:40;;;;;;;3.08;2.72;;;3.90;99.90;;;;;;5078392;28;20199;-76
2021/01/27 00:47:07;;;;;;;4.90;3.30;;;4.00;99.90;;;;;;5079148;28;20233;-76
2021/01/27 00:49:34;;;;;;;6.15;3.88;;;3.90;99.90;;;;;;5080148;28;20196;-76
2021/01/27 00:52:00;;;;;;;4.90;4.03;;;3.90;99.90;;;;;;5079184;28;20721;-77
2021/01/27 00:54:26;;;;;;;3.65;3.30;;;3.90;99.90;;;;;;5083477;28;20299;-78
2021/01/27 00:56:52;;;;;;;4.45;4.05;;;3.90;99.90;;;;;;5082019;28;20199;-77
2021/01/27 00:59:19;;;;;;;3.53;3.25;;;3.90;99.90;;;;;;5079161;28;20277;-77
2021/01/27 01:01:45;;;;;;;3.13;2.85;;;3.90;99.90;;;;;;5082068;28;20702;-76
2021/01/27 01:04:11;;;;;;;3.30;3.00;;;3.90;99.90;;;;;;5079338;28;20205;-77
2021/01/27 01:06:38;;;;;;;5.60;3.78;;;3.90;99.90;;;;;;5080124;28;20287;-76
2021/01/27 01:09:05;;;;;;;3.42;3.22;;;3.90;99.90;;;;;;5082507;28;20843;-78
2021/01/27 01:11:31;;;;;;;4.65;4.20;;;3.90;99.90;;;;;;5079942;28;20203;-77
2021/01/27 01:13:58;;;;;;;5.95;3.47;;;3.90;99.90;;;;;;5078306;28;20207;-76
2021/01/27 01:16:24;;;;;;;3.92;3.40;;;3.90;99.90;;;;;;5081429;28;20561;-77
2021/01/27 01:18:50;;;;;;;3.10;2.90;;;3.90;99.90;;;;;;5081110;28;20204;-77
2021/01/27 01:21:17;;;;;;;5.60;3.90;;;3.90;99.90;;;;;;5081543;28;20200;-77
2021/01/27 01:23:44;;;;;;;3.47;3.20;;;3.90;99.90;;;;;;5076265;28;20193;-76
2021/01/27 01:26:10;;;;;;;3.85;3.55;;;3.90;99.90;;;;;;5080271;28;20655;-77
2021/01/27 01:28:36;;;;;;;3.47;3.17;;;3.90;99.90;;;;;;5073969;28;20632;-77
2021/01/27 01:31:03;;;;;;;4.47;3.20;;;4.00;99.90;;;;;;5071103;28;20206;-77
2021/01/27 01:33:31;;;;;;;5.38;3.75;;;4.00;99.90;;;;;;5079379;28;20673;-77
2021/01/27 01:35:58;;;;;;;3.47;2.65;;;3.90;99.90;;;;;;5079141;28;20196;-76
2021/01/27 01:38:24;;;;;;;3.55;3.00;;;3.90;99.90;;;;;;5073730;28;20199;-76
2021/01/27 01:40:54;;;;;;;3.28;2.95;;;4.00;99.90;;;;;;5081986;28;20215;-77
2021/01/27 01:43:25;;;;;;;3.10;2.90;;;4.00;99.90;;;;;;5083642;28;20298;-76
2021/01/27 01:45:54;;;;;;;3.30;3.10;;;3.90;99.90;;;;;;5076380;28;20224;-76
2021/01/27 01:48:28;;;;;;;4.00;3.67;;;3.90;99.90;;;;;;5075297;28;20199;-76
2021/01/27 01:51:00;;;;;;;3.65;3.35;;;3.90;99.90;;;;;;5077387;28;20273;-77
2021/01/27 01:53:26;;;;;;;3.67;3.10;;;3.90;99.90;;;;;;5079465;28;20921;-77
2021/01/27 01:55:55;;;;;;;4.50;3.60;;;3.90;99.90;;;;;;5075273;28;20195;-77
2021/01/27 01:58:22;;;;;;;2.80;2.60;;;3.90;99.90;;;;;;5077489;28;20617;-76
2021/01/27 02:00:52;;;;;;;4.75;3.25;;;3.90;99.90;;;;;;5076885;28;20227;-76
2021/01/27 02:03:19;;;;;;;3.50;3.30;;;3.90;99.90;;;;;;5078743;28;20574;-76
2021/01/27 02:05:46;;;;;;;3.25;2.97;;;3.90;99.90;;;;;;5077701;28;20287;-77
2021/01/27 02:08:13;;;;;;;4.63;3.40;;;3.90;99.90;;;;;;5081453;28;20289;-75
2021/01/27 02:10:39;;;;;;;4.55;2.90;;;3.90;99.90;;;;;;5081126;28;20203;-77
2021/01/27 02:13:33;;;;;;;4.10;3.70;;;3.90;99.90;;;;;;5082636;28;20198;-77
2021/01/27 02:16:09;;;;;;;5.93;3.80;;;3.80;99.90;;;;;;5070841;28;20205;-76
2021/01/27 02:18:49;;;;;;;3.95;3.00;;;3.80;99.90;;;;;;5079300;28;20288;-77
2021/01/27 02:21:44;;;;;;;3.72;3.40;;;3.90;99.90;;;;;;5083047;28;20205;-77
2021/01/27 02:24:39;;;;;;;4.15;3.63;;;3.80;99.90;;;;;;5033985;28;20203;-76
2021/01/27 02:27:09;;;;;;;3.45;3.15;;;3.80;99.90;;;;;;5077259;28;20921;-76
2021/01/27 02:29:50;;;;;;;3.40;3.10;;;3.90;99.90;;;;;;5080699;28;20195;-76
2021/01/27 02:32:42;;;;;;;3.50;3.13;;;3.80;99.90;;;;;;5077522;28;20200;-76
2021/01/27 02:35:14;;;;;;;3.22;2.92;;;3.80;99.90;;;;;;5074856;28;20595;-78
2021/01/27 02:37:46;;;;;;;6.88;3.80;;;3.90;99.90;;;;;;5074122;28;20248;-77
2021/01/27 02:40:19;;;;;;;5.20;3.33;;;3.80;99.90;;;;;;5079805;28;20191;-76
2021/01/27 02:42:56;;;;;;;3.80;3.50;;;3.80;99.90;;;;;;5079536;28;20207;-76
2021/01/27 02:45:25;;;;;;;3.55;3.25;;;3.90;99.90;;;;;;5082329;28;20203;-76
2021/01/27 02:47:57;;;;;;;3.30;3.00;;;3.90;99.90;;;;;;5079221;28;20199;-77
2021/01/27 02:50:28;;;;;;;3.45;3.20;;;3.90;99.90;;;;;;5074500;28;20224;-78
2021/01/27 02:53:01;;;;;;;4.78;3.47;;;3.90;99.90;;;;;;5074472;28;20191;-76
2021/01/27 02:55:32;;;;;;;3.55;3.25;;;3.90;99.90;;;;;;5074850;28;20571;-75
2021/01/27 02:58:04;;;;;;;3.53;2.88;;;3.90;99.90;;;;;;5082655;28;20556;-76
2021/01/27 03:00:33;;;;;;;3.10;2.80;;;3.90;99.90;;;;;;5075364;28;20227;-76
2021/01/27 03:03:05;;;;;;;3.63;3.10;;;3.90;99.90;;;;;;5080099;28;20709;-77
2021/01/27 03:05:35;;;;;;;3.30;3.00;;;3.90;99.90;;;;;;5079265;28;20559;-76
2021/01/27 03:08:05;;;;;;;4.90;3.38;;;4.00;99.90;;;;;;5078209;28;20676;-77
2021/01/27 03:10:40;;;;;;;4.28;3.63;;;4.00;99.90;;;;;;5081024;28;20311;-77
2021/01/27 03:13:07;;;;;;;3.58;3.03;;;4.00;99.90;;;;;;5079211;28;20198;-76
2021/01/27 03:15:37;;;;;;;5.28;3.67;;;4.00;99.90;;;;;;5078346;28;20196;-77
2021/01/27 03:18:05;;;;;;;4.20;3.20;;;4.00;99.90;;;;;;5073254;28;20196;-77
2021/01/27 03:20:37;;;;;;;4.22;3.00;;;4.00;99.90;;;;;;5077770;28;20200;-77
2021/01/27 03:23:09;;;;;;;3.28;3.05;;;4.00;99.90;;;;;;5075870;28;20202;-76
2021/01/27 03:25:43;;;;;;;2.97;2.78;;;4.00;99.90;;;;;;5071077;28;20219;-76
2021/01/27 03:28:14;;;;;;;3.53;3.30;;;4.00;99.90;;;;;;5078773;28;20192;-77
2021/01/27 03:30:41;;;;;;;3.92;3.45;;;3.90;99.90;;;;;;5077176;28;20294;-76
2021/01/27 03:33:13;;;;;;;3.28;2.97;;;3.90;99.90;;;;;;5077574;28;20203;-76
2021/01/27 03:35:44;;;;;;;8.48;3.90;;;3.90;99.90;;;;;;5075243;28;20196;-77
2021/01/27 03:38:26;;;;;;;3.60;3.28;;;3.90;99.90;;;;;;5069711;28;20206;-77
2021/01/27 03:41:04;;;;;;;6.40;3.85;;;4.00;99.90;;;;;;5076615;28;20921;-76
2021/01/27 03:43:33;;;;;;;3.97;3.53;;;3.90;99.90;;;;;;5072200;28;20191;-77
2021/01/27 03:46:06;;;;;;;5.57;3.72;;;4.00;99.90;;;;;;5072725;28;20226;-77
2021/01/27 03:48:38;;;;;;;4.38;3.97;;;4.00;99.90;;;;;;5078313;28;20627;-77
2021/01/27 03:51:06;;;;;;;4.15;3.20;;;4.00;99.90;;;;;;5078715;28;20219;-76
2021/01/27 03:53:33;;;;;;;3.83;3.40;;;4.00;99.90;;;;;;5075334;28;20253;-77
2021/01/27 03:56:09;;;;;;;4.15;3.60;;;4.00;99.90;;;;;;5073783;28;20602;-76
2021/01/27 03:58:38;;;;;;;4.78;3.55;;;4.00;99.90;;;;;;5072230;28;20579;-76
2021/01/27 04:01:07;;;;;;;3.67;3.15;;;4.00;99.90;;;;;;5077917;28;20230;-77
2021/01/27 04:03:34;;;;;;;3.50;3.20;;;4.00;99.90;;;;;;5077996;28;20196;-77
2021/01/27 04:06:01;;;;;;;3.78;3.47;;;4.00;99.90;;;;;;5079809;28;20235;-77
2021/01/27 04:08:28;;;;;;;4.25;3.42;;;4.00;99.90;;;;;;5078181;28;20663;-76
2021/01/27 04:10:55;;;;;;;3.90;3.38;;;4.00;99.90;;;;;;5076471;28;20202;-76
2021/01/27 04:13:22;;;;;;;3.35;3.13;;;4.00;99.90;;;;;;5079387;28;20202;-76
2021/01/27 04:15:48;;;;;;;3.70;3.40;;;4.00;99.90;;;;;;5084124;28;20203;-76
2021/01/27 04:18:15;;;;;;;3.92;3.53;;;4.00;99.90;;;;;;5084651;28;20203;-77
2021/01/27 04:20:41;;;;;;;3.45;3.15;;;4.00;99.90;;;;;;5078861;28;20207;-77
2021/01/27 04:23:07;;;;;;;5.97;3.90;;;4.10;99.90;;;;;;5081558;28;20275;-77
2021/01/27 04:25:34;;;;;;;3.63;3.17;;;4.10;99.90;;;;;;5078704;28;20911;-77
2021/01/27 04:28:01;;;;;;;7.15;4.05;;;4.10;99.90;;;;;;5078444;28;20204;-76
2021/01/27 04:30:33;;;;;;;5.00;3.03;;;4.00;99.90;;;;;;5078124;28;20348;-77
2021/01/27 04:33:01;;;;;;;3.88;3.22;;;4.00;99.90;;;;;;5082230;28;20267;-77
2021/01/27 04:35:28;;;;;;;3.20;3.00;;;4.00;99.90;;;;;;5079061;28;20668;-76
2021/01/27 04:37:54;;;;;;;3.40;3.10;;;4.00;99.90;;;;;;5076982;28;20202;-75
2021/01/27 04:40:25;;;;;;;4.50;3.10;;;4.00;99.90;;;;;;5080755;28;20206;-77
2021/01/27 04:42:54;;;;;;;3.17;2.65;;;4.00;99.90;;;;;;5080071;28;20286;-77
2021/01/27 04:45:21;;;;;;;3.35;2.85;;;4.10;99.90;;;;;;5082583;28;20250;-77
2021/01/27 04:47:55;;;;;;;3.13;2.85;;;4.10;99.90;;;;;;5080414;28;20231;-77
2021/01/27 04:50:27;;;;;;;2.60;2.40;;;4.10;99.90;;;;;;5083708;28;20195;-76
2021/01/27 04:53:38;;;;;;;3.55;2.53;;;4.10;99.90;;;;;;5078873;28;20199;-76
2021/01/27 04:56:37;;;;;;;4.63;2.30;;;4.10;99.90;;;;;;5061561;28;20211;-76
2021/01/27 04:59:12;;;;;;;3.15;2.92;;;4.10;99.90;;;;;;5079024;28;20288;-77
2021/01/27 05:02:01;;;;;;;3.05;2.75;;;4.10;99.90;;;;;;5073901;28;20236;-76
2021/01/27 05:04:49;;;;;;;8.18;3.45;;;4.10;99.90;;;;;;5080308;28;20207;-77
2021/01/27 05:07:21;;;;;;;3.08;2.78;;;4.10;99.90;;;;;;5076117;28;20551;-76
2021/01/27 05:09:55;;;;;;;2.72;2.53;;;4.00;99.90;;;;;;5083398;28;20269;-76
2021/01/27 05:12:25;;;;;;;3.15;2.85;;;4.00;99.90;;;;;;5079796;28;20268;-77
2021/01/27 05:14:54;;;;;;;6.18;2.85;;;4.00;99.90;;;;;;5078851;28;20192;-76
2021/01/27 05:17:21;;;;;;;2.90;2.55;;;4.00;99.90;;;;;;5084703;28;20287;-76
2021/01/27 05:19:49;;;;;;;5.90;2.85;;;4.00;99.90;;;;;;5082208;28;20253;-76
2021/01/27 05:22:15;;;;;;;3.53;2.88;;;4.10;99.90;;;;;;5081265;28;20200;-77
2021/01/27 05:24:42;;;;;;;2.25;2.15;;;4.00;99.90;;;;;;5082704;28;20188;-77
2021/01/27 05:27:14;;;;;;;3.88;2.33;;;4.10;99.90;;;;;;5080606;28;20500;-77
2021/01/27 05:29:43;;;;;;;1.70;1.60;;;4.10;99.90;;;;;;5085136;28;20206;-76
2021/01/27 05:32:13;;;;;;;2.05;1.92;;;4.10;99.90;;;;;;5081191;28;20284;-76
2021/01/27 05:34:41;;;;;;;3.00;1.90;;;4.10;99.90;;;;;;5077238;28;20195;-77
2021/01/27 05:37:11;;;;;;;1.73;1.63;;;4.10;99.90;;;;;;5078167;28;20200;-75
2021/01/27 05:39:39;;;;;;;2.00;1.90;;;4.10;99.90;;;;;;5080342;28;20229;-76
2021/01/27 05:42:22;;;;;;;2.45;2.25;;;4.10;99.90;;;;;;5080699;28;20214;-77
2021/01/27 05:44:51;;;;;;;3.05;1.90;;;4.10;99.90;;;;;;5080587;28;20715;-77
2021/01/27 05:47:33;;;;;;;1.80;1.70;;;4.10;99.90;;;;;;5081004;28;20227;-77
2021/01/27 05:50:13;;;;;;;1.85;1.75;;;4.10;99.90;;;;;;5079552;28;20559;-77
2021/01/27 05:52:40;;;;;;;1.45;1.35;;;4.10;99.90;;;;;;5080479;28;20217;-79
2021/01/27 05:55:08;;;;;;;1.58;1.48;;;4.10;99.90;;;;;;5074821;28;20203;-77
2021/01/27 05:57:34;;;;;;;2.00;1.85;;;4.00;99.90;;;;;;5080395;28;20221;-76
2021/01/27 06:00:08;;;;;;;1.70;1.60;;;4.00;99.90;;;;;;5074950;28;20311;-79
2021/01/27 06:02:39;;;;;;;2.13;1.95;;;4.00;99.90;;;;;;5080105;28;20200;-79
2021/01/27 06:05:08;;;;;;;1.70;1.60;;;4.00;99.90;;;;;;5082081;28;20216;-78
2021/01/27 06:07:35;;;;;;;2.00;1.90;;;4.00;99.90;;;;;;5081112;28;20559;-78
2021/01/27 06:10:18;;;;;;;2.28;2.10;;;4.00;99.90;;;;;;5080407;28;20196;-77
2021/01/27 06:12:44;;;;;;;2.25;2.05;;;3.90;99.90;;;;;;5071408;28;20202;-78
2021/01/27 06:15:18;;;;;;;2.55;2.30;;;3.90;99.90;;;;;;5078424;28;20246;-78
2021/01/27 06:17:47;;;;;;;1.83;1.73;;;3.90;99.90;;;;;;5079186;28;20246;-77
2021/01/27 06:20:30;;;;;;;1.80;1.70;;;3.90;99.90;;;;;;5082997;28;20206;-77
2021/01/27 06:23:36;;;;;;;1.60;1.50;;;3.80;99.90;;;;;;5078894;28;20821;-79
2021/01/27 06:26:14;;;;;;;2.20;1.58;;;3.80;99.90;;;;;;5067694;28;20215;-78
2021/01/27 06:29:06;;;;;;;2.10;2.00;;;3.80;99.90;;;;;;5079909;28;20589;-77
2021/01/27 06:31:50;;;;;;;2.85;1.75;;;3.80;99.90;;;;;;5068871;28;20207;-78
2021/01/27 06:34:43;;;;;;;2.75;1.95;;;3.80;99.90;;;;;;5078274;28;20202;-78
2021/01/27 06:37:42;;;;;;;2.10;1.90;;;3.80;99.90;;;;;;5073713;28;20203;-79
2021/01/27 06:40:32;;;;;;;2.40;2.20;;;3.70;99.90;;;;;;5073367;28;20196;-76
2021/01/27 06:43:32;;;;;;;4.20;2.30;;;3.70;99.90;;;;;;5076253;28;20541;-77
2021/01/27 06:46:15;;;;;;;6.60;3.30;;;3.70;99.90;;;;;;5079295;28;21017;-77
2021/01/27 06:49:05;;;;;;;4.22;3.22;;;3.70;99.90;;;;;;5073239;28;20200;-79
2021/01/27 06:51:44;;;;;;;3.58;3.20;;;3.70;99.90;;;;;;5071623;28;20246;-77
2021/01/27 06:54:26;;;;;;;4.28;3.05;;;3.70;99.90;;;;;;5073791;28;20200;-76
2021/01/27 06:57:15;;;;;;;8.65;3.85;;;3.70;99.90;;;;;;5076211;28;20590;-76
2021/01/27 07:00:10;;;;;;;3.22;3.00;;;3.70;99.90;;;;;;5071173;28;20196;-77
2021/01/27 07:03:09;;;;;;;6.15;3.35;;;3.70;99.90;;;;;;5078997;28;20465;-79
2021/01/27 07:05:59;;;;;;;2.92;2.65;;;3.70;99.90;;;;;;5073538;28;20195;-77
2021/01/27 07:08:44;;;;;;;3.40;2.97;;;3.80;99.90;;;;;;5071128;28;20207;-78
2021/01/27 07:11:22;;;;;;;3.92;3.58;;;3.70;99.90;;;;;;5081185;28;20243;-77
2021/01/27 07:14:24;;;;;;;4.03;3.60;;;3.70;99.90;;;;;;5079254;28;20652;-75
2021/01/27 07:17:19;;;;;;;3.80;3.42;;;3.70;99.90;;;;;;5074990;28;20222;-77
2021/01/27 07:20:19;;;;;;;12.10;3.40;;;3.70;99.90;;;;;;5072918;28;20305;-75
2021/01/27 07:22:50;;;;;;;8.30;3.38;;;3.70;99.90;;;;;;5077224;28;20662;-75
2021/01/27 07:25:26;;;;;;;3.45;3.25;;;3.70;99.90;;;;;;5075283;28;20205;-75
2021/01/27 07:27:57;;;;;;;8.20;4.00;;;3.70;99.90;;;;;;5081354;28;20223;-77
2021/01/27 07:30:32;;;;;;;5.07;4.20;;;3.70;99.90;;;;;;5076157;28;20233;-76
2021/01/27 07:33:04;;;;;;;3.95;3.28;;;3.70;99.90;;;;;;5077818;28;20204;-77
2021/01/27 07:35:36;;;;;;;4.20;3.90;;;3.70;99.90;;;;;;5079501;28;20550;-76
2021/01/27 07:38:08;;;;;;;4.15;3.75;;;3.70;99.90;;;;;;5080234;28;20192;-77
2021/01/27 07:40:41;;;;;;;5.43;4.05;;;3.70;99.90;;;;;;5078361;28;20220;-76
2021/01/27 07:43:13;;;;;;;4.18;3.25;;;3.70;99.90;;;;;;5077720;28;20313;-76
2021/01/27 07:45:44;;;;;;;5.18;4.68;;;3.70;99.90;;;;;;5082143;28;20248;-76
2021/01/27 07:48:16;;;;;;;3.85;3.55;;;3.70;99.90;;;;;;5084079;28;20564;-77
2021/01/27 07:50:49;;;;;;;6.60;3.80;;;3.70;99.90;;;;;;5083090;28;20211;-76
2021/01/27 07:53:21;;;;;;;3.97;3.67;;;3.70;99.90;;;;;;5082985;28;20204;-75
2021/01/27 07:55:59;;;;;;;6.63;3.80;;;3.70;99.90;;;;;;5082593;28;20557;-76
2021/01/27 07:58:31;;;;;;;4.72;4.10;;;3.70;99.90;;;;;;5086544;28;20551;-76
2021/01/27 08:01:02;;;;;;;3.95;3.63;;;3.70;99.90;;;;;;5084279;28;20228;-76
2021/01/27 08:03:54;;;;;;;4.00;3.70;;;3.70;99.90;;;;;;5080691;28;20617;-75
2021/01/27 08:06:23;;;;;;;4.72;3.53;;;3.80;99.90;;;;;;5078716;28;20258;-77
2021/01/27 08:08:53;;;;;;;4.40;3.45;;;3.70;99.90;;;;;;5080140;28;20194;-76
2021/01/27 08:11:28;;;;;;;4.50;4.10;;;3.70;99.90;;;;;;5087191;28;20716;-76
2021/01/27 08:13:55;;;;;;;3.80;3.50;;;3.80;99.90;;;;;;5078269;28;20924;-76
2021/01/27 08:16:36;;;;;;;6.00;3.33;;;3.80;99.90;;;;;;5081178;28;20195;-76
2021/01/27 08:19:27;;;;;;;3.25;3.05;;;3.80;99.90;;;;;;5083635;28;20192;-75
2021/01/27 08:21:59;;;;;;;3.45;3.10;;;3.80;99.90;;;;;;5077723;28;20203;-76
2021/01/27 08:25:02;;;;;;;3.85;3.55;;;3.80;99.90;;;;;;5075737;28;20196;-78
2021/01/27 08:27:38;;;;;;;4.82;3.38;;;3.80;99.90;;;;;;5083697;28;20211;-77
2021/01/27 08:30:25;;;;;;;10.57;4.55;;;3.80;99.90;;;;;;5086362;28;20832;-76
2021/01/27 08:33:28;;;;;;;5.28;4.65;;;3.90;99.90;;;;;;5074417;28;20194;-77
2021/01/27 08:36:08;;;;;;;7.43;4.97;;;3.90;99.90;;;;;;5046050;28;20969;-76
2021/01/27 08:38:38;;;;;;;7.13;4.85;;;3.80;99.90;;;;;;5080453;28;20527;-76
2021/01/27 08:41:09;;;;;;;4.20;3.90;;;3.80;99.90;;;;;;5075290;28;20191;-76
2021/01/27 08:43:52;;;;;;;4.22;3.92;;;3.90;99.90;;;;;;5086084;28;20606;-78
2021/01/27 08:46:27;;;;;;;4.45;4.05;;;3.90;99.90;;;;;;5086141;28;20230;-78
2021/01/27 08:48:54;;;;;;;4.18;3.88;;;3.90;99.90;;;;;;5089129;28;20221;-76
2021/01/27 08:51:40;;;;;;;3.70;3.40;;;3.90;99.90;;;;;;5087622;28;20231;-76
2021/01/27 08:54:23;;;;;;;3.28;2.97;;;3.90;99.90;;;;;;5088279;28;20611;-78
2021/01/27 08:57:36;;;;;;;5.32;3.60;;;4.00;99.90;;;;;;5087403;28;20247;-76
2021/01/27 09:00:11;;;;;;;3.35;3.05;;;4.10;99.90;;;;;;5047765;28;20199;-75
2021/01/27 09:02:50;;;;;;;3.70;3.40;;;4.10;99.90;;;;;;5082961;28;20202;-76
2021/01/27 09:05:43;;;;;;;3.70;3.45;;;4.10;99.90;;;;;;5080785;28;20562;-76
2021/01/27 09:08:31;;;;;;;4.80;3.45;;;4.10;99.90;;;;;;5078378;28;20241;-77
2021/01/27 09:10:59;;;;;;;2.70;2.50;;;4.20;99.90;;;;;;5078385;28;20667;-75
2021/01/27 09:13:35;;;;;;;3.20;2.90;;;4.20;99.90;;;;;;5083847;28;20215;-76
2021/01/27 09:16:05;;;;;;;2.92;2.72;;;4.20;99.90;;;;;;5083223;28;20199;-76
2021/01/27 09:18:33;;;;;;;2.83;2.55;;;4.30;99.90;;;;;;5082889;28;20567;-77
2021/01/27 09:21:05;;;;;;;2.55;2.35;;;4.30;99.90;;;;;;5085997;28;20198;-78
2021/01/27 09:23:31;;;;;;;2.85;2.65;;;4.30;99.90;;;;;;5083731;28;20300;-75
2021/01/27 09:26:02;;;;;;;3.35;2.78;;;4.40;99.90;;;;;;5082431;28;20201;-77
2021/01/27 09:28:28;;;;;;;2.83;2.63;;;4.40;99.90;;;;;;5080478;28;20207;-76
2021/01/27 09:30:56;;;;;;;2.40;2.30;;;4.40;99.90;;;;;;5083334;28;20199;-76
2021/01/27 09:33:32;;;;;;;2.33;2.15;;;4.40;99.90;;;;;;5084699;28;20204;-77
2021/01/27 09:36:08;;;;;;;2.60;2.40;;;4.40;99.90;;;;;;5083835;28;20578;-77
2021/01/27 09:38:35;;;;;;;3.05;2.80;;;4.40;99.90;;;;;;5080843;28;20194;-77
2021/01/27 09:41:05;;;;;;;2.90;2.70;;;4.40;99.90;;;;;;5086991;28;20192;-76
2021/01/27 09:43:36;;;;;;;2.50;2.30;;;4.50;99.90;;;;;;5083883;28;20195;-76
2021/01/27 09:46:18;;;;;;;2.67;2.47;;;4.50;99.90;;;;;;5085418;28;20192;-76
2021/01/27 09:48:46;;;;;;;3.33;3.13;;;4.50;99.90;;;;;;5085743;28;20241;-75
2021/01/27 09:51:15;;;;;;;2.78;2.65;;;4.50;99.90;;;;;;5085829;28;20226;-76
2021/01/27 09:53:44;;;;;;;2.75;2.55;;;4.50;99.90;;;;;;5081142;28;20230;-76
2021/01/27 09:56:15;;;;;;;2.92;2.72;;;4.50;99.90;;;;;;5079912;28;20223;-76
2021/01/27 09:58:42;;;;;;;3.15;2.92;;;4.50;99.90;;;;;;5082118;28;20192;-76
2021/01/27 10:01:16;;;;;;;2.58;2.38;;;4.50;99.90;;;;;;5070493;28;20248;-77
2021/01/27 10:03:44;;;;;;;3.22;2.97;;;4.50;99.90;;;;;;5061737;28;20212;-77
2021/01/27 10:06:30;;;;;;;2.90;2.63;;;4.50;99.90;;;;;;5063089;28;20200;-77
2021/01/27 10:08:59;;;;;;;3.10;2.90;;;4.50;99.90;;;;;;5058805;28;20236;-78
2021/01/27 10:11:33;;;;;;;2.55;2.35;;;4.60;99.90;;;;;;5059916;28;20196;-76
2021/01/27 10:14:02;;;;;;;4.65;3.17;;;4.60;99.90;;;;;;5060341;28;20557;-75
2021/01/27 10:16:29;;;;;;;3.45;3.25;;;4.60;99.90;;;;;;5062274;28;20287;-77
2021/01/27 10:19:02;;;;;;;3.63;3.33;;;4.60;99.90;;;;;;5063050;28;20203;-76
2021/01/27 10:21:29;;;;;;;5.20;4.18;;;4.60;99.90;;;;;;5065738;28;20669;-76
2021/01/27 10:23:56;;;;;;;4.47;4.07;;;4.60;99.90;;;;;;5064773;28;20242;-76
2021/01/27 10:26:37;;;;;;;3.05;2.75;;;4.60;99.90;;;;;;5059065;28;20220;-77
2021/01/27 10:29:35;;;;;;;5.18;3.22;;;4.60;99.90;;;;;;5063222;28;20203;-78
2021/01/27 10:32:17;;;;;;;6.32;3.65;;;4.60;99.90;;;;;;5048743;28;20199;-76
2021/01/27 10:34:45;;;;;;;4.20;3.83;;;4.60;99.90;;;;;;5054587;28;20247;-78
2021/01/27 10:37:31;;;;;;;3.42;3.13;;;4.70;99.90;;;;;;5060344;28;20192;-76
2021/01/27 10:40:09;;;;;;;2.58;2.40;;;4.70;99.90;;;;;;5059425;28;20200;-76
2021/01/27 10:42:36;;;;;;;3.10;2.90;;;4.70;99.90;;;;;;5058408;28;20196;-76
2021/01/27 10:45:22;;;;;;;3.08;2.88;;;4.70;99.90;;;;;;5066843;28;20596;-76
2021/01/27 10:47:58;;;;;;;3.55;2.85;;;4.70;99.90;;;;;;5068376;28;20220;-77
2021/01/27 10:50:25;;;;;;;3.22;2.92;;;4.70;99.90;;;;;;5068937;28;20200;-76
2021/01/27 10:52:52;;;;;;;2.97;2.78;;;4.70;99.90;;;;;;5057507;28;20667;-77
2021/01/27 10:55:21;;;;;;;2.58;2.38;;;4.70;99.90;;;;;;5062042;28;20226;-77
2021/01/27 10:57:47;;;;;;;3.03;2.80;;;4.70;99.90;;;;;;5058680;28;20207;-77
2021/01/27 11:00:16;;;;;;;3.25;2.60;;;4.70;99.90;;;;;;5063075;28;20225;-76
2021/01/27 11:02:42;;;;;;;3.28;3.08;;;4.80;99.90;;;;;;5085977;28;20874;-77
2021/01/27 11:05:10;;;;;;;3.35;3.05;;;4.80;99.90;;;;;;5080976;28;20287;-77
2021/01/27 11:07:36;;;;;;;2.78;2.60;;;4.80;99.90;;;;;;5080830;28;20231;-78
2021/01/27 11:10:05;;;;;;;3.65;3.17;;;4.80;99.90;;;;;;5079680;28;20534;-78
2021/01/27 11:12:32;;;;;;;3.65;3.35;;;4.80;99.90;;;;;;5081539;28;20957;-77
2021/01/27 11:14:58;;;;;;;3.03;2.83;;;4.80;99.90;;;;;;5082839;28;20196;-76
2021/01/27 11:17:25;;;;;;;2.90;2.70;;;4.90;99.90;;;;;;5083043;28;20565;-76
2021/01/27 11:19:51;;;;;;;3.08;2.78;;;4.90;99.90;;;;;;5074644;28;20222;-76
2021/01/27 11:22:17;;;;;;;4.28;3.20;;;4.90;99.90;;;;;;5080048;28;20222;-77
2021/01/27 11:24:44;;;;;;;3.38;3.15;;;4.90;99.90;;;;;;5077355;28;20207;-76
2021/01/27 11:27:11;;;;;;;3.63;3.33;;;4.90;99.90;;;;;;5078279;28;20220;-78
2021/01/27 11:29:37;;;;;;;3.97;3.58;;;5.00;99.90;;;;;;5081883;28;20202;-77
2021/01/27 11:32:04;;;;;;;3.90;3.60;;;5.00;99.90;;;;;;5082244;28;20195;-76
2021/01/27 11:34:30;;;;;;;3.38;3.08;;;5.00;99.90;;;;;;5076891;28;20287;-77
2021/01/27 11:36:57;;;;;;;3.55;3.20;;;5.00;99.90;;;;;;5082733;28;20211;-79
2021/01/27 11:39:23;;;;;;;4.65;3.50;;;5.00;99.90;;;;;;5076235;28;20886;-76
2021/01/27 11:41:49;;;;;;;3.35;3.05;;;5.10;99.90;;;;;;5082607;28;20210;-76
2021/01/27 11:44:16;;;;;;;3.90;3.60;;;5.10;99.90;;;;;;5081112;28;20241;-78
2021/01/27 11:46:45;;;;;;;3.70;3.40;;;5.10;99.90;;;;;;5081069;28;20224;-76
2021/01/27 11:49:12;;;;;;;3.92;3.63;;;5.10;99.90;;;;;;5074574;28;20238;-78
2021/01/27 11:51:38;;;;;;;4.68;3.90;;;5.20;99.90;;;;;;5078535;28;20238;-78
2021/01/27 11:54:05;;;;;;;4.60;4.20;;;5.20;99.90;;;;;;5082193;28;20555;-77
2021/01/27 11:56:31;;;;;;;4.28;3.97;;;5.20;99.90;;;;;;5084638;28;20198;-76
2021/01/27 11:58:57;;;;;;;5.93;5.40;;;5.20;99.90;;;;;;5077151;28;20195;-78
2021/01/27 12:01:27;;;;;;;5.38;4.95;;;5.20;99.90;;;;;;5078853;28;20219;-76
2021/01/27 12:03:54;;;;;;;5.88;5.40;;;5.20;99.90;;;;;;5081443;28;20671;-76
2021/01/27 12:06:21;;;;;;;6.45;5.78;;;5.30;99.90;;;;;;5083212;28;20249;-76
2021/01/27 12:08:47;;;;;;;6.25;5.65;;;5.30;99.90;;;;;;5079077;28;20253;-78
2021/01/27 12:11:14;;;;;;;6.90;4.70;;;5.30;99.90;;;;;;5075110;28;20192;-78
2021/01/27 12:13:40;;;;;;;5.05;4.65;;;5.30;99.90;;;;;;5087292;28;20283;-77
2021/01/27 12:16:07;;;;;;;5.60;5.10;;;5.40;99.90;;;;;;5086134;28;20482;-78
2021/01/27 12:18:34;;;;;;;5.45;4.95;;;5.40;99.90;;;;;;5081467;28;20223;-76
2021/01/27 12:21:01;;;;;;;5.93;5.35;;;5.40;99.90;;;;;;5075980;28;20197;-75
2021/01/27 12:23:27;;;;;;;5.25;4.75;;;5.40;99.90;;;;;;5080461;28;20207;-77
2021/01/27 12:25:53;;;;;;;5.55;5.05;;;5.40;99.90;;;;;;5080434;28;20226;-75
2021/01/27 12:28:19;;;;;;;4.85;4.45;;;5.40;99.90;;;;;;5072982;28;20620;-76
2021/01/27 12:30:46;;;;;;;4.65;4.35;;;5.40;99.90;;;;;;5083881;28;20192;-78
2021/01/27 12:33:12;;;;;;;4.90;4.40;;;5.50;99.90;;;;;;5082652;28;20249;-76
2021/01/27 12:35:39;;;;;;;5.45;4.95;;;5.50;99.90;;;;;;5082568;28;20196;-76
2021/01/27 12:38:06;;;;;;;5.32;4.88;;;5.60;99.90;;;;;;5077385;28;20201;-76
2021/01/27 12:40:32;;;;;;;5.90;5.40;;;5.60;99.90;;;;;;5080092;28;20248;-78
2021/01/27 12:42:59;;;;;;;7.43;5.80;;;5.60;99.90;;;;;;5086486;28;20200;-76
2021/01/27 12:45:29;;;;;;;6.75;6.15;;;5.60;99.90;;;;;;5085333;28;20219;-77
2021/01/27 12:47:55;;;;;;;6.00;5.50;;;5.70;99.90;;;;;;5086316;28;20219;-76
2021/01/27 12:50:23;;;;;;;6.97;6.10;;;5.70;99.90;;;;;;5084555;28;20192;-76
2021/01/27 12:52:50;;;;;;;6.68;6.00;;;5.70;99.90;;;;;;5081101;28;20195;-75
2021/01/27 12:55:19;;;;;;;6.28;5.60;;;5.70;99.90;;;;;;5083100;28;20196;-76
2021/01/27 12:57:46;;;;;;;5.55;5.10;;;5.70;99.90;;;;;;5086017;28;20314;-75
2021/01/27 13:00:16;;;;;;;6.55;5.63;;;5.70;99.90;;;;;;5086835;28;20285;-75
2021/01/27 13:02:43;;;;;;;6.32;4.75;;;5.70;99.90;;;;;;5083102;28;20202;-76
2021/01/27 13:05:11;;;;;;;5.90;5.30;;;5.70;99.90;;;;;;5082425;28;20773;-76
2021/01/27 13:07:37;;;;;;;5.97;5.47;;;5.70;99.90;;;;;;5080713;28;20224;-75
2021/01/27 13:10:08;;;;;;;5.75;5.25;;;5.70;99.90;;;;;;5085872;28;20861;-76
2021/01/27 13:12:35;;;;;;;5.25;4.85;;;5.70;99.90;;;;;;5086571;28;20194;-77
2021/01/27 13:15:02;;;;;;;6.00;5.50;;;5.70;99.90;;;;;;5089587;28;20972;-75
2021/01/27 13:17:28;;;;;;;5.45;5.05;;;5.70;99.90;;;;;;5090156;28;20211;-75
2021/01/27 13:19:54;;;;;;;6.60;4.93;;;5.70;99.90;;;;;;5084353;28;20666;-75
2021/01/27 13:22:21;;;;;;;9.38;5.95;;;5.70;99.90;;;;;;5082405;28;20272;-76
2021/01/27 13:24:47;;;;;;;5.55;5.05;;;5.70;99.90;;;;;;5082124;28;20257;-76